createdAt,value
2023-05-22T00:30:01.383Z,74.0
2023-05-22T01:50:01.172Z,79.7
2023-05-22T02:30:01.187Z,80.1
2023-05-22T03:10:01.185Z,84.2
2023-05-22T04:00:01.252Z,92.2
2023-05-22T04:30:01.157Z,95.8
2023-05-22T04:50:01.236Z,97.2
2023-05-22T05:10:01.210Z,97.9
2023-05-22T05:50:01.269Z,99.9
2023-05-22T06:00:01.319Z,99.8
2023-05-22T06:10:01.229Z,96.0
2023-05-22T06:50:01.273Z,93.9
2023-05-22T08:10:01.189Z,83.6
2023-05-22T08:30:01.230Z,75.8
2023-05-22T08:40:01.277Z,73.2
2023-05-22T09:10:01.209Z,67.8
2023-05-22T09:30:01.211Z,63.0
2023-05-22T10:00:01.260Z,58.3
2023-05-22T11:10:01.220Z,47.7
2023-05-22T11:30:01.185Z,47.7
2023-05-22T11:50:01.232Z,43.8
2023-05-22T12:10:01.280Z,40.8
2023-05-22T12:30:01.229Z,37.2
2023-05-22T12:50:01.302Z,35.7
2023-05-22T13:10:01.246Z,32.3
2023-05-22T13:30:01.194Z,32.1
2023-05-22T13:50:01.240Z,29.2
2023-05-22T14:30:01.217Z,28.3
2023-05-22T15:10:01.307Z,26.8
2023-05-22T15:30:01.257Z,26.3
2023-05-22T15:50:01.288Z,26.6
2023-05-22T16:30:01.661Z,27.0
2023-05-22T16:50:01.494Z,29.6
2023-05-22T17:10:01.274Z,29.9
2023-05-22T17:30:01.259Z,31.8
2023-05-22T17:50:01.266Z,34.1
2023-05-22T18:10:02.005Z,34.9
2023-05-22T18:30:01.268Z,35.4
2023-05-22T18:50:01.313Z,37.3
2023-05-22T19:10:01.281Z,38.9
2023-05-22T19:30:01.245Z,40.6
2023-05-22T19:50:01.194Z,43.8
2023-05-22T20:10:01.245Z,44.6
2023-05-22T20:30:01.202Z,46.1
2023-05-22T20:50:01.264Z,49.0
2023-05-22T21:10:01.266Z,49.6
2023-05-22T21:30:01.409Z,50.3
2023-05-22T22:10:01.271Z,52.9
2023-05-22T22:30:01.169Z,53.3
2023-05-22T22:50:01.259Z,55.8
2023-05-22T23:10:01.160Z,56.8
2023-05-22T23:30:01.388Z,59.9
2023-05-22T23:50:01.265Z,60.5
